sensor_id;sensor_type;location;lat;lon;timestamp;P1;durP1;ratioP1;P2;durP2;ratioP2
8714;SDS011;4394;51.208;8.904;2023-05-02T00:00:40;6.77;;;6.07;;
8714;SDS011;4394;51.208;8.904;2023-05-02T00:03:30;7.23;;;6.17;;
8714;SDS011;4394;51.208;8.904;2023-05-02T00:06:19;7.43;;;6.53;;
8714;SDS011;4394;51.208;8.904;2023-05-02T00:09:09;8.73;;;6.97;;
8714;SDS011;4394;51.208;8.904;2023-05-02T00:11:57;8.90;;;6.83;;
8714;SDS011;4394;51.208;8.904;2023-05-02T00:14:46;8.03;;;7.20;;
8714;SDS011;4394;51.208;8.904;2023-05-02T00:17:34;8.93;;;7.17;;
8714;SDS011;4394;51.208;8.904;2023-05-02T00:20:23;10.50;;;8.10;;
8714;SDS011;4394;51.208;8.904;2023-05-02T00:23:11;9.50;;;8.13;;
8714;SDS011;4394;51.208;8.904;2023-05-02T00:26:01;10.20;;;8.97;;
8714;SDS011;4394;51.208;8.904;2023-05-02T00:28:49;10.97;;;9.73;;
8714;SDS011;4394;51.208;8.904;2023-05-02T00:31:39;11.47;;;9.90;;
8714;SDS011;4394;51.208;8.904;2023-05-02T00:34:28;11.17;;;8.50;;
8714;SDS011;4394;51.208;8.904;2023-05-02T00:37:16;10.10;;;8.83;;
8714;SDS011;4394;51.208;8.904;2023-05-02T00:40:06;10.73;;;8.93;;
8714;SDS011;4394;51.208;8.904;2023-05-02T00:42:56;11.60;;;9.27;;
8714;SDS011;4394;51.208;8.904;2023-05-02T00:45:44;11.70;;;9.23;;
8714;SDS011;4394;51.208;8.904;2023-05-02T00:48:32;9.63;;;8.63;;
8714;SDS011;4394;51.208;8.904;2023-05-02T00:51:21;9.33;;;8.10;;
8714;SDS011;4394;51.208;8.904;2023-05-02T00:54:10;9.60;;;8.23;;
8714;SDS011;4394;51.208;8.904;2023-05-02T00:56:59;11.43;;;8.27;;
8714;SDS011;4394;51.208;8.904;2023-05-02T00:59:49;11.67;;;9.03;;
8714;SDS011;4394;51.208;8.904;2023-05-02T01:02:41;12.83;;;8.50;;
8714;SDS011;4394;51.208;8.904;2023-05-02T01:05:38;10.97;;;8.83;;
8714;SDS011;4394;51.208;8.904;2023-05-02T01:08:33;11.20;;;8.77;;
8714;SDS011;4394;51.208;8.904;2023-05-02T01:11:27;12.07;;;8.97;;
8714;SDS011;4394;51.208;8.904;2023-05-02T01:14:25;9.57;;;8.50;;
8714;SDS011;4394;51.208;8.904;2023-05-02T01:17:18;10.73;;;8.20;;
8714;SDS011;4394;51.208;8.904;2023-05-02T01:20:11;13.20;;;9.43;;
8714;SDS011;4394;51.208;8.904;2023-05-02T01:23:05;10.90;;;8.93;;
8714;SDS011;4394;51.208;8.904;2023-05-02T01:26:04;11.30;;;9.07;;
8714;SDS011;4394;51.208;8.904;2023-05-02T01:29:03;12.37;;;9.10;;
8714;SDS011;4394;51.208;8.904;2023-05-02T01:31:53;12.00;;;8.87;;
8714;SDS011;4394;51.208;8.904;2023-05-02T01:34:45;11.67;;;9.40;;
8714;SDS011;4394;51.208;8.904;2023-05-02T01:37:35;12.47;;;9.33;;
8714;SDS011;4394;51.208;8.904;2023-05-02T01:40:24;12.60;;;9.67;;
8714;SDS011;4394;51.208;8.904;2023-05-02T01:43:13;11.30;;;9.47;;
8714;SDS011;4394;51.208;8.904;2023-05-02T01:46:04;13.97;;;10.47;;
8714;SDS011;4394;51.208;8.904;2023-05-02T01:48:54;13.70;;;10.77;;
8714;SDS011;4394;51.208;8.904;2023-05-02T01:51:46;12.43;;;9.97;;
8714;SDS011;4394;51.208;8.904;2023-05-02T01:54:35;11.10;;;9.83;;
8714;SDS011;4394;51.208;8.904;2023-05-02T01:57:25;12.97;;;9.87;;
8714;SDS011;4394;51.208;8.904;2023-05-02T02:00:14;13.50;;;10.43;;
8714;SDS011;4394;51.208;8.904;2023-05-02T02:03:05;13.27;;;9.97;;
8714;SDS011;4394;51.208;8.904;2023-05-02T02:05:55;11.43;;;10.23;;
8714;SDS011;4394;51.208;8.904;2023-05-02T02:08:45;12.97;;;10.40;;
8714;SDS011;4394;51.208;8.904;2023-05-02T02:11:34;13.17;;;9.50;;
8714;SDS011;4394;51.208;8.904;2023-05-02T02:14:24;13.13;;;9.70;;
8714;SDS011;4394;51.208;8.904;2023-05-02T02:17:15;12.13;;;10.03;;
8714;SDS011;4394;51.208;8.904;2023-05-02T02:20:14;12.60;;;9.83;;
8714;SDS011;4394;51.208;8.904;2023-05-02T02:23:04;11.17;;;9.70;;
8714;SDS011;4394;51.208;8.904;2023-05-02T02:25:54;14.83;;;10.87;;
8714;SDS011;4394;51.208;8.904;2023-05-02T02:28:44;13.17;;;10.37;;
8714;SDS011;4394;51.208;8.904;2023-05-02T02:31:33;14.80;;;10.90;;
8714;SDS011;4394;51.208;8.904;2023-05-02T02:34:24;12.70;;;9.87;;
8714;SDS011;4394;51.208;8.904;2023-05-02T02:37:15;13.87;;;10.87;;
8714;SDS011;4394;51.208;8.904;2023-05-02T02:40:07;14.00;;;10.90;;
8714;SDS011;4394;51.208;8.904;2023-05-02T02:43:06;15.40;;;11.10;;
8714;SDS011;4394;51.208;8.904;2023-05-02T02:46:01;12.93;;;10.13;;
8714;SDS011;4394;51.208;8.904;2023-05-02T02:49:03;13.90;;;10.53;;
8714;SDS011;4394;51.208;8.904;2023-05-02T02:52:01;17.23;;;12.43;;
8714;SDS011;4394;51.208;8.904;2023-05-02T02:54:59;16.23;;;12.30;;
8714;SDS011;4394;51.208;8.904;2023-05-02T02:57:57;16.40;;;12.57;;
8714;SDS011;4394;51.208;8.904;2023-05-02T03:00:49;18.10;;;12.97;;
8714;SDS011;4394;51.208;8.904;2023-05-02T03:03:38;17.30;;;13.00;;
8714;SDS011;4394;51.208;8.904;2023-05-02T03:06:29;18.37;;;13.70;;
8714;SDS011;4394;51.208;8.904;2023-05-02T03:09:18;18.77;;;14.50;;
8714;SDS011;4394;51.208;8.904;2023-05-02T03:12:07;19.23;;;15.57;;
8714;SDS011;4394;51.208;8.904;2023-05-02T03:14:58;21.47;;;15.63;;
8714;SDS011;4394;51.208;8.904;2023-05-02T03:17:55;22.40;;;16.07;;
8714;SDS011;4394;51.208;8.904;2023-05-02T03:20:44;21.33;;;16.33;;
8714;SDS011;4394;51.208;8.904;2023-05-02T03:23:32;21.90;;;16.23;;
8714;SDS011;4394;51.208;8.904;2023-05-02T03:26:21;21.47;;;17.33;;
8714;SDS011;4394;51.208;8.904;2023-05-02T03:29:10;26.80;;;17.93;;
8714;SDS011;4394;51.208;8.904;2023-05-02T03:31:58;23.53;;;17.77;;
8714;SDS011;4394;51.208;8.904;2023-05-02T03:34:47;21.93;;;17.07;;
8714;SDS011;4394;51.208;8.904;2023-05-02T03:37:35;24.03;;;17.77;;
8714;SDS011;4394;51.208;8.904;2023-05-02T03:40:23;25.70;;;19.17;;
8714;SDS011;4394;51.208;8.904;2023-05-02T03:43:11;24.37;;;18.70;;
8714;SDS011;4394;51.208;8.904;2023-05-02T03:46:04;27.53;;;21.00;;
8714;SDS011;4394;51.208;8.904;2023-05-02T03:48:56;26.00;;;19.57;;
8714;SDS011;4394;51.208;8.904;2023-05-02T03:51:44;28.80;;;20.80;;
8714;SDS011;4394;51.208;8.904;2023-05-02T03:54:33;28.23;;;20.27;;
8714;SDS011;4394;51.208;8.904;2023-05-02T03:57:21;29.70;;;20.67;;
8714;SDS011;4394;51.208;8.904;2023-05-02T04:00:10;27.97;;;19.07;;
8714;SDS011;4394;51.208;8.904;2023-05-02T04:03:01;28.27;;;21.23;;
8714;SDS011;4394;51.208;8.904;2023-05-02T04:05:49;29.63;;;20.77;;
8714;SDS011;4394;51.208;8.904;2023-05-02T04:08:38;29.80;;;20.20;;
8714;SDS011;4394;51.208;8.904;2023-05-02T04:11:26;28.17;;;20.77;;
8714;SDS011;4394;51.208;8.904;2023-05-02T04:14:15;26.50;;;19.53;;
8714;SDS011;4394;51.208;8.904;2023-05-02T04:17:04;30.77;;;21.27;;
8714;SDS011;4394;51.208;8.904;2023-05-02T04:19:53;27.63;;;20.17;;
8714;SDS011;4394;51.208;8.904;2023-05-02T04:22:43;27.73;;;20.17;;
8714;SDS011;4394;51.208;8.904;2023-05-02T04:25:33;28.27;;;19.57;;
8714;SDS011;4394;51.208;8.904;2023-05-02T04:28:22;30.33;;;19.83;;
8714;SDS011;4394;51.208;8.904;2023-05-02T04:31:10;29.33;;;19.67;;
8714;SDS011;4394;51.208;8.904;2023-05-02T04:33:59;29.57;;;19.67;;
8714;SDS011;4394;51.208;8.904;2023-05-02T04:36:49;30.87;;;19.70;;
8714;SDS011;4394;51.208;8.904;2023-05-02T04:39:37;30.60;;;19.70;;
8714;SDS011;4394;51.208;8.904;2023-05-02T04:42:26;32.50;;;20.60;;
8714;SDS011;4394;51.208;8.904;2023-05-02T04:45:14;30.60;;;20.03;;
8714;SDS011;4394;51.208;8.904;2023-05-02T04:48:03;30.60;;;19.73;;
8714;SDS011;4394;51.208;8.904;2023-05-02T04:50:51;28.93;;;20.00;;
8714;SDS011;4394;51.208;8.904;2023-05-02T04:53:42;31.77;;;19.80;;
8714;SDS011;4394;51.208;8.904;2023-05-02T04:56:31;31.23;;;19.67;;
8714;SDS011;4394;51.208;8.904;2023-05-02T04:59:20;30.30;;;18.70;;
8714;SDS011;4394;51.208;8.904;2023-05-02T05:02:08;30.67;;;18.43;;
8714;SDS011;4394;51.208;8.904;2023-05-02T05:04:59;28.47;;;19.03;;
8714;SDS011;4394;51.208;8.904;2023-05-02T05:07:48;29.60;;;18.33;;
8714;SDS011;4394;51.208;8.904;2023-05-02T05:10:39;32.03;;;18.17;;
8714;SDS011;4394;51.208;8.904;2023-05-02T05:13:27;29.60;;;17.37;;
8714;SDS011;4394;51.208;8.904;2023-05-02T05:16:16;27.30;;;17.30;;
8714;SDS011;4394;51.208;8.904;2023-05-02T05:19:04;27.07;;;17.33;;
8714;SDS011;4394;51.208;8.904;2023-05-02T05:21:53;27.57;;;16.93;;
8714;SDS011;4394;51.208;8.904;2023-05-02T05:24:41;23.93;;;15.43;;
8714;SDS011;4394;51.208;8.904;2023-05-02T05:27:31;27.93;;;15.20;;
8714;SDS011;4394;51.208;8.904;2023-05-02T05:30:20;26.70;;;15.53;;
8714;SDS011;4394;51.208;8.904;2023-05-02T05:33:08;24.43;;;15.50;;
8714;SDS011;4394;51.208;8.904;2023-05-02T05:36:02;24.43;;;14.20;;
8714;SDS011;4394;51.208;8.904;2023-05-02T05:38:51;19.93;;;12.37;;
8714;SDS011;4394;51.208;8.904;2023-05-02T05:41:40;21.60;;;11.67;;
8714;SDS011;4394;51.208;8.904;2023-05-02T05:44:30;19.43;;;11.43;;
8714;SDS011;4394;51.208;8.904;2023-05-02T05:51:02;19.47;;;11.63;;
8714;SDS011;4394;51.208;8.904;2023-05-02T05:53:51;18.80;;;11.37;;
8714;SDS011;4394;51.208;8.904;2023-05-02T05:56:39;20.20;;;11.80;;
8714;SDS011;4394;51.208;8.904;2023-05-02T05:59:27;22.00;;;12.40;;
8714;SDS011;4394;51.208;8.904;2023-05-02T06:02:17;19.53;;;11.47;;
8714;SDS011;4394;51.208;8.904;2023-05-02T06:05:06;17.13;;;10.90;;
8714;SDS011;4394;51.208;8.904;2023-05-02T06:07:55;18.33;;;10.30;;
8714;SDS011;4394;51.208;8.904;2023-05-02T06:10:43;16.67;;;9.57;;
8714;SDS011;4394;51.208;8.904;2023-05-02T06:13:31;17.37;;;9.57;;
8714;SDS011;4394;51.208;8.904;2023-05-02T06:16:21;14.27;;;9.20;;
8714;SDS011;4394;51.208;8.904;2023-05-02T06:19:09;14.87;;;9.77;;
8714;SDS011;4394;51.208;8.904;2023-05-02T06:21:58;14.80;;;9.10;;
8714;SDS011;4394;51.208;8.904;2023-05-02T06:24:46;13.57;;;9.30;;
8714;SDS011;4394;51.208;8.904;2023-05-02T06:27:34;14.80;;;8.63;;
8714;SDS011;4394;51.208;8.904;2023-05-02T06:30:22;12.63;;;7.83;;
8714;SDS011;4394;51.208;8.904;2023-05-02T06:33:12;10.73;;;7.23;;
8714;SDS011;4394;51.208;8.904;2023-05-02T06:36:00;11.37;;;7.20;;
8714;SDS011;4394;51.208;8.904;2023-05-02T06:38:49;12.60;;;8.53;;
8714;SDS011;4394;51.208;8.904;2023-05-02T06:41:37;13.30;;;8.17;;
8714;SDS011;4394;51.208;8.904;2023-05-02T06:44:25;12.10;;;7.40;;
8714;SDS011;4394;51.208;8.904;2023-05-02T06:47:13;9.70;;;7.30;;
8714;SDS011;4394;51.208;8.904;2023-05-02T06:50:03;10.73;;;7.53;;
8714;SDS011;4394;51.208;8.904;2023-05-02T06:52:52;9.20;;;6.50;;
8714;SDS011;4394;51.208;8.904;2023-05-02T06:55:41;9.67;;;6.20;;
8714;SDS011;4394;51.208;8.904;2023-05-02T06:58:31;8.60;;;5.67;;
8714;SDS011;4394;51.208;8.904;2023-05-02T07:01:19;8.40;;;5.50;;
8714;SDS011;4394;51.208;8.904;2023-05-02T07:04:08;8.37;;;5.23;;
8714;SDS011;4394;51.208;8.904;2023-05-02T07:06:57;8.63;;;5.60;;
8714;SDS011;4394;51.208;8.904;2023-05-02T07:09:46;10.53;;;5.50;;
8714;SDS011;4394;51.208;8.904;2023-05-02T07:12:35;9.90;;;5.27;;
8714;SDS011;4394;51.208;8.904;2023-05-02T07:15:24;8.07;;;5.57;;
8714;SDS011;4394;51.208;8.904;2023-05-02T07:18:12;7.63;;;5.00;;
8714;SDS011;4394;51.208;8.904;2023-05-02T07:21:00;7.93;;;4.77;;
8714;SDS011;4394;51.208;8.904;2023-05-02T07:23:50;6.83;;;4.93;;
8714;SDS011;4394;51.208;8.904;2023-05-02T07:26:40;6.53;;;4.73;;
8714;SDS011;4394;51.208;8.904;2023-05-02T07:29:29;7.70;;;4.67;;
8714;SDS011;4394;51.208;8.904;2023-05-02T07:32:17;6.97;;;4.57;;
8714;SDS011;4394;51.208;8.904;2023-05-02T07:35:07;6.20;;;5.07;;
8714;SDS011;4394;51.208;8.904;2023-05-02T07:37:56;7.07;;;4.87;;
8714;SDS011;4394;51.208;8.904;2023-05-02T07:40:45;7.70;;;4.67;;
8714;SDS011;4394;51.208;8.904;2023-05-02T07:43:33;5.63;;;4.10;;
8714;SDS011;4394;51.208;8.904;2023-05-02T07:46:21;5.23;;;3.87;;
8714;SDS011;4394;51.208;8.904;2023-05-02T07:49:10;7.10;;;4.40;;
8714;SDS011;4394;51.208;8.904;2023-05-02T07:51:59;5.90;;;4.20;;
8714;SDS011;4394;51.208;8.904;2023-05-02T07:54:47;6.40;;;3.97;;
8714;SDS011;4394;51.208;8.904;2023-05-02T07:57:37;5.87;;;4.00;;
8714;SDS011;4394;51.208;8.904;2023-05-02T08:00:25;4.37;;;3.20;;
8714;SDS011;4394;51.208;8.904;2023-05-02T08:03:13;4.70;;;3.30;;
8714;SDS011;4394;51.208;8.904;2023-05-02T08:06:02;4.43;;;3.03;;
8714;SDS011;4394;51.208;8.904;2023-05-02T08:08:50;4.57;;;3.17;;
8714;SDS011;4394;51.208;8.904;2023-05-02T08:11:38;4.27;;;3.33;;
8714;SDS011;4394;51.208;8.904;2023-05-02T08:14:28;4.80;;;3.27;;
8714;SDS011;4394;51.208;8.904;2023-05-02T08:17:17;5.03;;;3.37;;
8714;SDS011;4394;51.208;8.904;2023-05-02T08:20:05;5.97;;;4.10;;
8714;SDS011;4394;51.208;8.904;2023-05-02T08:22:54;6.60;;;4.47;;
8714;SDS011;4394;51.208;8.904;2023-05-02T08:25:45;6.30;;;4.97;;
8714;SDS011;4394;51.208;8.904;2023-05-02T08:28:33;6.73;;;5.10;;
8714;SDS011;4394;51.208;8.904;2023-05-02T08:31:23;5.93;;;4.63;;
8714;SDS011;4394;51.208;8.904;2023-05-02T08:34:11;6.50;;;4.87;;
8714;SDS011;4394;51.208;8.904;2023-05-02T08:37:00;8.10;;;5.40;;
8714;SDS011;4394;51.208;8.904;2023-05-02T08:39:48;6.73;;;5.07;;
8714;SDS011;4394;51.208;8.904;2023-05-02T08:42:36;8.27;;;5.33;;
8714;SDS011;4394;51.208;8.904;2023-05-02T08:45:29;5.53;;;4.20;;
8714;SDS011;4394;51.208;8.904;2023-05-02T08:48:25;4.87;;;4.17;;
8714;SDS011;4394;51.208;8.904;2023-05-02T08:51:15;3.60;;;3.27;;
8714;SDS011;4394;51.208;8.904;2023-05-02T08:54:05;6.47;;;3.70;;
8714;SDS011;4394;51.208;8.904;2023-05-02T08:56:56;3.47;;;2.90;;
8714;SDS011;4394;51.208;8.904;2023-05-02T08:59:47;4.27;;;3.10;;
8714;SDS011;4394;51.208;8.904;2023-05-02T09:02:39;3.23;;;2.70;;
8714;SDS011;4394;51.208;8.904;2023-05-02T09:05:39;3.20;;;2.70;;
8714;SDS011;4394;51.208;8.904;2023-05-02T09:08:28;2.80;;;2.50;;
8714;SDS011;4394;51.208;8.904;2023-05-02T09:11:16;4.30;;;2.30;;
8714;SDS011;4394;51.208;8.904;2023-05-02T09:14:13;3.47;;;2.57;;
8714;SDS011;4394;51.208;8.904;2023-05-02T09:17:01;2.83;;;2.40;;
8714;SDS011;4394;51.208;8.904;2023-05-02T09:19:58;3.30;;;2.70;;
8714;SDS011;4394;51.208;8.904;2023-05-02T09:22:48;3.00;;;2.70;;
8714;SDS011;4394;51.208;8.904;2023-05-02T09:25:37;3.90;;;2.73;;
8714;SDS011;4394;51.208;8.904;2023-05-02T09:28:40;2.33;;;2.13;;
8714;SDS011;4394;51.208;8.904;2023-05-02T09:31:30;3.13;;;2.40;;
8714;SDS011;4394;51.208;8.904;2023-05-02T09:34:40;2.63;;;2.33;;
8714;SDS011;4394;51.208;8.904;2023-05-02T09:37:54;3.40;;;2.00;;
8714;SDS011;4394;51.208;8.904;2023-05-02T09:40:49;2.30;;;2.10;;
8714;SDS011;4394;51.208;8.904;2023-05-02T09:43:40;3.80;;;2.30;;
8714;SDS011;4394;51.208;8.904;2023-05-02T09:46:29;2.30;;;2.10;;
8714;SDS011;4394;51.208;8.904;2023-05-02T09:49:40;2.73;;;2.10;;
8714;SDS011;4394;51.208;8.904;2023-05-02T09:52:31;2.30;;;2.10;;
8714;SDS011;4394;51.208;8.904;2023-05-02T09:55:20;3.30;;;2.40;;
8714;SDS011;4394;51.208;8.904;2023-05-02T09:58:18;2.50;;;2.30;;
8714;SDS011;4394;51.208;8.904;2023-05-02T10:01:10;2.53;;;2.07;;
8714;SDS011;4394;51.208;8.904;2023-05-02T10:04:02;3.30;;;2.00;;
8714;SDS011;4394;51.208;8.904;2023-05-02T10:06:51;1.93;;;1.80;;
8714;SDS011;4394;51.208;8.904;2023-05-02T10:09:42;2.40;;;2.20;;
8714;SDS011;4394;51.208;8.904;2023-05-02T10:12:32;3.67;;;2.50;;
8714;SDS011;4394;51.208;8.904;2023-05-02T10:15:21;3.70;;;2.97;;
8714;SDS011;4394;51.208;8.904;2023-05-02T10:18:14;3.53;;;3.20;;
8714;SDS011;4394;51.208;8.904;2023-05-02T10:21:14;4.47;;;3.23;;
8714;SDS011;4394;51.208;8.904;2023-05-02T10:24:04;3.90;;;3.50;;
8714;SDS011;4394;51.208;8.904;2023-05-02T10:26:52;4.30;;;3.40;;
8714;SDS011;4394;51.208;8.904;2023-05-02T10:29:43;4.07;;;3.40;;
8714;SDS011;4394;51.208;8.904;2023-05-02T10:32:33;5.17;;;3.90;;
8714;SDS011;4394;51.208;8.904;2023-05-02T10:35:23;4.00;;;3.47;;
8714;SDS011;4394;51.208;8.904;2023-05-02T10:38:13;3.53;;;3.23;;
8714;SDS011;4394;51.208;8.904;2023-05-02T10:41:05;4.83;;;3.47;;
8714;SDS011;4394;51.208;8.904;2023-05-02T10:43:56;3.53;;;3.23;;
8714;SDS011;4394;51.208;8.904;2023-05-02T10:46:47;3.83;;;3.40;;
8714;SDS011;4394;51.208;8.904;2023-05-02T10:49:48;3.20;;;2.90;;
8714;SDS011;4394;51.208;8.904;2023-05-02T10:52:37;3.20;;;2.90;;
8714;SDS011;4394;51.208;8.904;2023-05-02T10:55:26;4.67;;;3.23;;
8714;SDS011;4394;51.208;8.904;2023-05-02T10:58:21;3.37;;;3.07;;
8714;SDS011;4394;51.208;8.904;2023-05-02T11:04:26;3.57;;;3.03;;
8714;SDS011;4394;51.208;8.904;2023-05-02T11:07:49;3.80;;;3.30;;
8714;SDS011;4394;51.208;8.904;2023-05-02T11:11:07;6.63;;;3.33;;
8714;SDS011;4394;51.208;8.904;2023-05-02T11:14:41;4.13;;;3.47;;
8714;SDS011;4394;51.208;8.904;2023-05-02T11:17:49;3.97;;;3.63;;
8714;SDS011;4394;51.208;8.904;2023-05-02T11:20:47;5.03;;;3.60;;
8714;SDS011;4394;51.208;8.904;2023-05-02T11:23:35;5.33;;;4.00;;
8714;SDS011;4394;51.208;8.904;2023-05-02T11:26:25;5.03;;;3.47;;
8714;SDS011;4394;51.208;8.904;2023-05-02T11:29:14;3.83;;;3.47;;
8714;SDS011;4394;51.208;8.904;2023-05-02T11:36:07;4.73;;;3.37;;
8714;SDS011;4394;51.208;8.904;2023-05-02T11:38:55;3.80;;;3.40;;
8714;SDS011;4394;51.208;8.904;2023-05-02T11:41:43;4.20;;;3.17;;
8714;SDS011;4394;51.208;8.904;2023-05-02T11:44:32;3.70;;;2.77;;
8714;SDS011;4394;51.208;8.904;2023-05-02T11:47:21;4.30;;;3.20;;
8714;SDS011;4394;51.208;8.904;2023-05-02T11:50:09;4.23;;;3.43;;
8714;SDS011;4394;51.208;8.904;2023-05-02T11:53:01;5.33;;;3.30;;
8714;SDS011;4394;51.208;8.904;2023-05-02T11:55:50;4.40;;;3.27;;
8714;SDS011;4394;51.208;8.904;2023-05-02T11:58:39;3.47;;;3.17;;
8714;SDS011;4394;51.208;8.904;2023-05-02T12:01:29;4.87;;;3.67;;
8714;SDS011;4394;51.208;8.904;2023-05-02T12:04:18;3.70;;;3.30;;
8714;SDS011;4394;51.208;8.904;2023-05-02T12:07:09;3.67;;;3.27;;
8714;SDS011;4394;51.208;8.904;2023-05-02T12:09:59;4.70;;;2.90;;
8714;SDS011;4394;51.208;8.904;2023-05-02T12:12:47;4.03;;;3.30;;
8714;SDS011;4394;51.208;8.904;2023-05-02T12:15:36;4.43;;;3.67;;
8714;SDS011;4394;51.208;8.904;2023-05-02T12:18:24;4.40;;;3.60;;
8714;SDS011;4394;51.208;8.904;2023-05-02T12:21:13;3.90;;;3.50;;
8714;SDS011;4394;51.208;8.904;2023-05-02T12:24:03;4.47;;;3.63;;
8714;SDS011;4394;51.208;8.904;2023-05-02T12:29:56;5.47;;;3.60;;
8714;SDS011;4394;51.208;8.904;2023-05-02T12:32:45;4.77;;;4.00;;
8714;SDS011;4394;51.208;8.904;2023-05-02T12:35:43;5.80;;;4.33;;
8714;SDS011;4394;51.208;8.904;2023-05-02T12:38:33;4.70;;;3.70;;
8714;SDS011;4394;51.208;8.904;2023-05-02T12:41:29;6.00;;;3.90;;
8714;SDS011;4394;51.208;8.904;2023-05-02T12:47:24;5.73;;;4.00;;
8714;SDS011;4394;51.208;8.904;2023-05-02T12:50:12;6.93;;;4.50;;
8714;SDS011;4394;51.208;8.904;2023-05-02T12:53:01;5.40;;;4.40;;
8714;SDS011;4394;51.208;8.904;2023-05-02T12:55:59;6.60;;;4.60;;
8714;SDS011;4394;51.208;8.904;2023-05-02T12:58:49;8.03;;;5.03;;
8714;SDS011;4394;51.208;8.904;2023-05-02T13:01:40;5.80;;;4.47;;
8714;SDS011;4394;51.208;8.904;2023-05-02T13:04:32;6.63;;;4.83;;
8714;SDS011;4394;51.208;8.904;2023-05-02T13:07:21;8.13;;;4.93;;
8714;SDS011;4394;51.208;8.904;2023-05-02T13:10:10;6.77;;;4.83;;
8714;SDS011;4394;51.208;8.904;2023-05-02T13:12:58;6.27;;;4.93;;
8714;SDS011;4394;51.208;8.904;2023-05-02T13:15:47;8.63;;;5.53;;
8714;SDS011;4394;51.208;8.904;2023-05-02T13:18:37;10.63;;;6.23;;
8714;SDS011;4394;51.208;8.904;2023-05-02T13:21:25;12.07;;;6.00;;
8714;SDS011;4394;51.208;8.904;2023-05-02T13:24:13;7.50;;;5.50;;
8714;SDS011;4394;51.208;8.904;2023-05-02T13:27:02;7.27;;;5.70;;
8714;SDS011;4394;51.208;8.904;2023-05-02T13:29:51;6.23;;;5.10;;
8714;SDS011;4394;51.208;8.904;2023-05-02T13:32:39;6.47;;;4.67;;
8714;SDS011;4394;51.208;8.904;2023-05-02T13:35:29;7.80;;;4.50;;
8714;SDS011;4394;51.208;8.904;2023-05-02T13:38:20;7.00;;;4.47;;
8714;SDS011;4394;51.208;8.904;2023-05-02T13:41:08;8.80;;;4.87;;
8714;SDS011;4394;51.208;8.904;2023-05-02T13:43:57;5.90;;;3.67;;
8714;SDS011;4394;51.208;8.904;2023-05-02T13:46:45;5.63;;;4.20;;
8714;SDS011;4394;51.208;8.904;2023-05-02T13:49:33;5.03;;;3.60;;
8714;SDS011;4394;51.208;8.904;2023-05-02T13:52:23;6.70;;;3.87;;
8714;SDS011;4394;51.208;8.904;2023-05-02T13:55:11;4.83;;;3.90;;
8714;SDS011;4394;51.208;8.904;2023-05-02T13:58:00;6.03;;;4.07;;
8714;SDS011;4394;51.208;8.904;2023-05-02T14:00:48;6.07;;;4.63;;
8714;SDS011;4394;51.208;8.904;2023-05-02T14:03:36;9.13;;;5.73;;
8714;SDS011;4394;51.208;8.904;2023-05-02T14:06:25;9.03;;;5.63;;
8714;SDS011;4394;51.208;8.904;2023-05-02T14:09:15;11.83;;;5.70;;
8714;SDS011;4394;51.208;8.904;2023-05-02T14:12:03;8.73;;;5.70;;
8714;SDS011;4394;51.208;8.904;2023-05-02T14:14:52;9.87;;;5.67;;
8714;SDS011;4394;51.208;8.904;2023-05-02T14:17:41;7.43;;;5.63;;
8714;SDS011;4394;51.208;8.904;2023-05-02T14:20:29;10.13;;;6.00;;
8714;SDS011;4394;51.208;8.904;2023-05-02T14:23:17;8.63;;;5.53;;
8714;SDS011;4394;51.208;8.904;2023-05-02T14:26:07;9.73;;;5.50;;
8714;SDS011;4394;51.208;8.904;2023-05-02T14:28:56;8.30;;;5.37;;
8714;SDS011;4394;51.208;8.904;2023-05-02T14:31:44;9.57;;;5.70;;
8714;SDS011;4394;51.208;8.904;2023-05-02T14:34:33;8.87;;;5.43;;
8714;SDS011;4394;51.208;8.904;2023-05-02T14:37:21;8.33;;;5.67;;
8714;SDS011;4394;51.208;8.904;2023-05-02T14:40:10;8.87;;;5.70;;
8714;SDS011;4394;51.208;8.904;2023-05-02T14:43:00;8.77;;;5.90;;
8714;SDS011;4394;51.208;8.904;2023-05-02T14:45:49;9.40;;;6.10;;
8714;SDS011;4394;51.208;8.904;2023-05-02T14:48:39;8.80;;;6.37;;
8714;SDS011;4394;51.208;8.904;2023-05-02T14:51:28;11.80;;;5.77;;
8714;SDS011;4394;51.208;8.904;2023-05-02T14:54:25;8.17;;;5.53;;
8714;SDS011;4394;51.208;8.904;2023-05-02T14:57:14;8.83;;;5.80;;
8714;SDS011;4394;51.208;8.904;2023-05-02T15:00:10;10.43;;;5.97;;
8714;SDS011;4394;51.208;8.904;2023-05-02T15:03:01;10.60;;;6.07;;
8714;SDS011;4394;51.208;8.904;2023-05-02T15:05:55;8.67;;;5.77;;
8714;SDS011;4394;51.208;8.904;2023-05-02T15:08:47;8.60;;;5.57;;
8714;SDS011;4394;51.208;8.904;2023-05-02T15:11:41;5.93;;;4.83;;
8714;SDS011;4394;51.208;8.904;2023-05-02T15:14:37;6.13;;;4.83;;
8714;SDS011;4394;51.208;8.904;2023-05-02T15:17:33;8.03;;;5.07;;
8714;SDS011;4394;51.208;8.904;2023-05-02T15:20:29;7.30;;;5.40;;
8714;SDS011;4394;51.208;8.904;2023-05-02T15:23:24;11.03;;;6.20;;
8714;SDS011;4394;51.208;8.904;2023-05-02T15:26:16;8.53;;;5.83;;
8714;SDS011;4394;51.208;8.904;2023-05-02T15:29:12;12.67;;;5.63;;
8714;SDS011;4394;51.208;8.904;2023-05-02T15:32:02;7.23;;;5.30;;
8714;SDS011;4394;51.208;8.904;2023-05-02T15:34:54;10.47;;;6.00;;
8714;SDS011;4394;51.208;8.904;2023-05-02T15:37:43;13.03;;;5.70;;
8714;SDS011;4394;51.208;8.904;2023-05-02T15:40:32;8.13;;;5.20;;
8714;SDS011;4394;51.208;8.904;2023-05-02T15:43:27;10.63;;;5.60;;
8714;SDS011;4394;51.208;8.904;2023-05-02T15:46:17;8.13;;;4.97;;
8714;SDS011;4394;51.208;8.904;2023-05-02T15:49:06;12.27;;;6.30;;
8714;SDS011;4394;51.208;8.904;2023-05-02T15:51:55;9.93;;;6.07;;
8714;SDS011;4394;51.208;8.904;2023-05-02T15:54:44;8.10;;;5.60;;
8714;SDS011;4394;51.208;8.904;2023-05-02T15:57:33;6.90;;;5.20;;
8714;SDS011;4394;51.208;8.904;2023-05-02T16:00:22;10.83;;;5.20;;
8714;SDS011;4394;51.208;8.904;2023-05-02T16:03:10;7.27;;;5.13;;
8714;SDS011;4394;51.208;8.904;2023-05-02T16:05:59;8.33;;;5.60;;
8714;SDS011;4394;51.208;8.904;2023-05-02T16:08:50;6.07;;;5.10;;
8714;SDS011;4394;51.208;8.904;2023-05-02T16:11:41;9.40;;;5.50;;
8714;SDS011;4394;51.208;8.904;2023-05-02T16:14:33;9.50;;;5.67;;
8714;SDS011;4394;51.208;8.904;2023-05-02T16:17:22;9.77;;;5.20;;
8714;SDS011;4394;51.208;8.904;2023-05-02T16:20:11;4.33;;;3.87;;
8714;SDS011;4394;51.208;8.904;2023-05-02T16:23:00;7.13;;;4.47;;
8714;SDS011;4394;51.208;8.904;2023-05-02T16:25:53;5.73;;;4.73;;
8714;SDS011;4394;51.208;8.904;2023-05-02T16:28:46;5.03;;;3.97;;
8714;SDS011;4394;51.208;8.904;2023-05-02T16:31:35;8.77;;;4.60;;
8714;SDS011;4394;51.208;8.904;2023-05-02T16:34:23;5.97;;;4.37;;
8714;SDS011;4394;51.208;8.904;2023-05-02T16:37:11;4.80;;;4.27;;
8714;SDS011;4394;51.208;8.904;2023-05-02T16:40:00;6.73;;;4.50;;
8714;SDS011;4394;51.208;8.904;2023-05-02T16:42:53;7.53;;;4.63;;
8714;SDS011;4394;51.208;8.904;2023-05-02T16:45:41;8.67;;;5.23;;
8714;SDS011;4394;51.208;8.904;2023-05-02T16:48:32;7.57;;;5.23;;
8714;SDS011;4394;51.208;8.904;2023-05-02T16:51:21;6.07;;;4.30;;
8714;SDS011;4394;51.208;8.904;2023-05-02T16:54:10;8.73;;;5.07;;
8714;SDS011;4394;51.208;8.904;2023-05-02T16:56:58;6.60;;;4.60;;
8714;SDS011;4394;51.208;8.904;2023-05-02T16:59:50;7.80;;;5.33;;
8714;SDS011;4394;51.208;8.904;2023-05-02T17:02:39;8.43;;;5.03;;
8714;SDS011;4394;51.208;8.904;2023-05-02T17:05:29;12.00;;;5.63;;
8714;SDS011;4394;51.208;8.904;2023-05-02T17:08:18;8.17;;;5.20;;
8714;SDS011;4394;51.208;8.904;2023-05-02T17:11:07;5.90;;;4.47;;
8714;SDS011;4394;51.208;8.904;2023-05-02T17:13:55;8.87;;;5.43;;
8714;SDS011;4394;51.208;8.904;2023-05-02T17:16:45;7.60;;;4.73;;
8714;SDS011;4394;51.208;8.904;2023-05-02T17:19:34;6.40;;;4.33;;
8714;SDS011;4394;51.208;8.904;2023-05-02T17:22:22;7.03;;;4.70;;
8714;SDS011;4394;51.208;8.904;2023-05-02T17:25:12;6.63;;;4.50;;
8714;SDS011;4394;51.208;8.904;2023-05-02T17:28:00;7.53;;;5.00;;
8714;SDS011;4394;51.208;8.904;2023-05-02T17:30:49;8.47;;;4.93;;
8714;SDS011;4394;51.208;8.904;2023-05-02T17:33:41;8.50;;;5.57;;
8714;SDS011;4394;51.208;8.904;2023-05-02T17:36:30;8.07;;;4.70;;
8714;SDS011;4394;51.208;8.904;2023-05-02T17:39:18;8.40;;;5.00;;
8714;SDS011;4394;51.208;8.904;2023-05-02T17:42:07;10.43;;;5.40;;
8714;SDS011;4394;51.208;8.904;2023-05-02T17:44:55;6.83;;;5.03;;
8714;SDS011;4394;51.208;8.904;2023-05-02T17:47:43;9.30;;;5.63;;